Time;durP1;ratioP1;P1;durP2;ratioP2;P2;SDS_P1;SDS_P2;PMS_P1;PMS_P2;Temp;Humidity;BMP_temperature;BMP_pressure;BME280_temperature;BME280_humidity;BME280_pressure;Samples;Min_cycle;Max_cycle;Signal;HPM_P1;HPM_P2
2022/01/07 00:00:59;;;;;;;30.13;7.70;;;;;;;2.79;100.00;101389.63;5070038;28;20108;-73
2022/01/07 00:03:25;;;;;;;20.63;7.40;;;;;;;2.81;100.00;101379.44;5068920;28;20038;-73
2022/01/07 00:05:51;;;;;;;21.35;7.97;;;;;;;2.81;100.00;101382.94;5068945;28;20051;-74
2022/01/07 00:08:16;;;;;;;20.92;7.18;;;;;;;2.84;100.00;101373.56;5068200;28;20049;-73
2022/01/07 00:10:42;;;;;;;26.15;7.88;;;;;;;2.82;100.00;101373.00;5067620;28;20045;-74
2022/01/07 00:13:07;;;;;;;18.85;7.82;;;;;;;2.74;100.00;101368.00;5068235;28;20044;-72
2022/01/07 00:15:33;;;;;;;27.75;8.85;;;;;;;2.82;100.00;101359.53;5067924;28;20048;-73
2022/01/07 00:17:59;;;;;;;25.90;8.27;;;;;;;2.80;100.00;101357.09;5071969;28;20291;-73
2022/01/07 00:20:25;;;;;;;17.23;7.55;;;;;;;2.79;100.00;101339.28;5070097;28;20379;-73
2022/01/07 00:22:51;;;;;;;23.45;8.07;;;;;;;2.81;100.00;101341.75;5070826;28;20050;-72
2022/01/07 00:25:18;;;;;;;25.08;8.13;;;;;;;2.78;100.00;101334.13;5069748;28;20040;-73
2022/01/07 00:27:43;;;;;;;17.67;7.55;;;;;;;2.78;100.00;101343.03;5068678;28;20351;-72
2022/01/07 00:30:11;;;;;;;17.85;8.73;;;;;;;2.71;100.00;101337.78;5067444;28;20067;-74
2022/01/07 00:32:37;;;;;;;21.23;8.00;;;;;;;2.80;100.00;101332.03;5066882;28;20084;-72
2022/01/07 00:35:04;;;;;;;21.67;8.35;;;;;;;2.80;100.00;101335.53;5066494;28;20044;-73
2022/01/07 00:37:29;;;;;;;23.40;8.18;;;;;;;2.83;100.00;101328.84;5066351;28;20102;-72
2022/01/07 00:39:55;;;;;;;24.55;8.60;;;;;;;2.89;100.00;101322.50;5066567;28;20615;-73
2022/01/07 00:42:20;;;;;;;22.00;7.30;;;;;;;2.81;100.00;101320.19;5064715;28;20059;-73
2022/01/07 00:44:46;;;;;;;26.35;9.32;;;;;;;2.87;100.00;101317.34;5064104;28;20071;-73
2022/01/07 00:47:11;;;;;;;26.17;8.30;;;;;;;2.89;100.00;101309.84;5066327;28;20270;-73
2022/01/07 00:49:37;;;;;;;18.65;7.82;;;;;;;2.81;100.00;101307.53;5065545;28;20032;-72
2022/01/07 00:52:03;;;;;;;24.92;8.70;;;;;;;2.86;100.00;101320.28;5064303;28;20040;-73
2022/01/07 00:54:28;;;;;;;28.80;8.63;;;;;;;2.80;100.00;101319.38;5064964;28;20141;-72
2022/01/07 00:56:54;;;;;;;25.85;8.23;;;;;;;2.84;100.00;101301.66;5066227;28;20074;-74
2022/01/07 00:59:20;;;;;;;29.70;9.40;;;;;;;2.79;100.00;101304.25;5065930;28;20128;-73
2022/01/07 01:01:46;;;;;;;22.15;8.80;;;;;;;2.66;100.00;101302.69;5065861;28;20048;-73
2022/01/07 01:04:13;;;;;;;22.70;9.02;;;;;;;2.71;100.00;101302.78;5063827;28;20163;-74
2022/01/07 01:06:41;;;;;;;23.90;9.18;;;;;;;2.58;100.00;101291.47;5065388;28;20579;-72
2022/01/07 01:09:10;;;;;;;26.45;9.68;;;;;;;2.53;100.00;101299.44;5065196;28;20412;-74
2022/01/07 01:11:37;;;;;;;20.52;8.80;;;;;;;2.54;100.00;101298.41;5063932;28;20781;-73
2022/01/07 01:14:03;;;;;;;27.80;9.20;;;;;;;2.52;100.00;101287.84;5063848;28;20468;-73
2022/01/07 01:16:29;;;;;;;21.77;9.52;;;;;;;2.43;100.00;101287.41;5063532;28;20045;-72
2022/01/07 01:18:54;;;;;;;25.60;9.07;;;;;;;2.41;100.00;101284.13;5065499;28;20129;-72
2022/01/07 01:21:20;;;;;;;26.65;9.90;;;;;;;2.38;100.00;101278.41;5063987;28;20056;-73
2022/01/07 01:23:45;;;;;;;29.05;11.00;;;;;;;2.42;100.00;101279.59;5065517;28;20306;-73
2022/01/07 01:26:14;;;;;;;34.72;11.35;;;;;;;2.34;100.00;101272.69;5065283;28;20083;-74
2022/01/07 01:28:40;;;;;;;27.10;10.93;;;;;;;2.26;100.00;101271.19;5061609;28;20044;-73
2022/01/07 01:31:06;;;;;;;28.63;11.02;;;;;;;2.30;100.00;101287.69;5062930;28;20056;-72
2022/01/07 01:33:32;;;;;;;27.85;10.98;;;;;;;2.31;100.00;101288.50;5060249;28;20064;-73
2022/01/07 01:35:57;;;;;;;33.85;12.25;;;;;;;2.25;100.00;101274.94;5061536;28;20234;-74
2022/01/07 01:38:23;;;;;;;30.85;11.10;;;;;;;2.18;100.00;101274.25;5062016;28;20048;-72
2022/01/07 01:40:48;;;;;;;32.25;11.60;;;;;;;2.20;100.00;101269.44;5062359;28;20040;-73
2022/01/07 01:43:14;;;;;;;27.35;11.35;;;;;;;2.20;100.00;101261.38;5060007;28;20681;-72
2022/01/07 01:45:39;;;;;;;26.23;11.88;;;;;;;2.24;100.00;101251.78;5061587;28;20127;-73
2022/01/07 01:48:05;;;;;;;31.05;12.48;;;;;;;2.17;100.00;101250.28;5060484;28;20048;-72
2022/01/07 01:50:30;;;;;;;29.98;12.23;;;;;;;2.24;100.00;101245.56;5061043;28;20078;-74
2022/01/07 01:52:56;;;;;;;25.65;11.27;;;;;;;2.12;100.00;101245.59;5062084;28;20461;-74
2022/01/07 01:55:26;;;;;;;27.45;12.20;;;;;;;2.16;100.00;101243.28;5061425;28;20036;-74
2022/01/07 01:57:52;;;;;;;26.42;12.20;;;;;;;2.16;100.00;101243.28;5060855;28;20040;-75
2022/01/07 02:00:23;;;;;;;32.55;12.00;;;;;;;2.10;100.00;101234.28;5061164;28;20036;-74
2022/01/07 02:02:49;;;;;;;33.00;11.73;;;;;;;2.15;100.00;101231.69;5042673;28;20082;-73
2022/01/07 02:05:14;;;;;;;28.25;11.43;;;;;;;2.08;100.00;101228.31;5061688;28;20036;-73
2022/01/07 02:07:41;;;;;;;34.00;12.60;;;;;;;2.17;100.00;101215.28;5061430;28;20495;-72
2022/01/07 02:10:09;;;;;;;32.00;12.70;;;;;;;2.19;100.00;101210.50;5059364;28;20055;-72
2022/01/07 02:12:35;;;;;;;30.13;11.60;;;;;;;2.19;100.00;101205.13;5060248;28;20094;-73
2022/01/07 02:15:01;;;;;;;27.63;12.30;;;;;;;2.13;100.00;101190.75;5061161;28;20060;-73
2022/01/07 02:17:27;;;;;;;31.67;12.27;;;;;;;2.17;100.00;101185.69;5061546;28;20043;-73
2022/01/07 02:19:54;;;;;;;25.85;11.43;;;;;;;2.10;100.00;101177.78;5061631;28;20040;-72
2022/01/07 02:22:19;;;;;;;23.27;12.05;;;;;;;2.14;100.00;101165.47;5061246;28;20074;-73
2022/01/07 02:24:46;;;;;;;21.27;11.27;;;;;;;2.16;100.00;101174.13;5059873;28;20425;-74
2022/01/07 02:27:13;;;;;;;31.02;13.10;;;;;;;2.22;100.00;101173.16;5061631;28;20044;-72
2022/01/07 02:29:39;;;;;;;26.60;12.32;;;;;;;2.21;100.00;101171.53;5060198;28;20060;-73
2022/01/07 02:32:06;;;;;;;31.10;11.93;;;;;;;2.23;100.00;101166.72;5059856;28;20072;-73
2022/01/07 02:34:31;;;;;;;28.65;12.13;;;;;;;2.18;100.00;101171.19;5061262;28;20039;-73
2022/01/07 02:36:56;;;;;;;34.50;12.40;;;;;;;2.16;100.00;101163.38;5061625;28;20108;-72
2022/01/07 02:39:22;;;;;;;26.30;11.45;;;;;;;2.16;100.00;101168.75;5060672;28;20400;-73
2022/01/07 02:41:47;;;;;;;36.30;12.13;;;;;;;2.18;100.00;101161.25;5061232;28;20362;-72
2022/01/07 02:44:13;;;;;;;27.65;11.68;;;;;;;2.21;100.00;101160.78;5060451;28;20044;-74
2022/01/07 02:46:39;;;;;;;29.27;11.82;;;;;;;2.25;100.00;101161.94;5061554;28;20056;-72
2022/01/07 02:49:09;;;;;;;25.25;11.73;;;;;;;2.26;100.00;101158.16;5061293;28;20036;-74
2022/01/07 02:51:34;;;;;;;28.20;11.43;;;;;;;2.20;100.00;101153.75;5061122;28;20039;-72
2022/01/07 02:54:00;;;;;;;26.73;10.73;;;;;;;2.10;100.00;101150.88;5061658;28;20512;-72
2022/01/07 02:56:25;;;;;;;34.63;11.52;;;;;;;2.32;100.00;101150.19;5061077;28;20131;-74
2022/01/07 02:58:51;;;;;;;23.27;11.27;;;;;;;2.24;100.00;101149.53;5062009;28;20072;-73
2022/01/07 03:01:16;;;;;;;27.38;11.20;;;;;;;2.27;100.00;101145.56;5061796;28;20434;-72
2022/01/07 03:03:42;;;;;;;25.60;10.27;;;;;;;2.31;100.00;101145.88;5060081;28;20113;-73
2022/01/07 03:06:07;;;;;;;21.33;10.05;;;;;;;2.26;100.00;101131.25;5061579;28;20048;-73
2022/01/07 03:08:33;;;;;;;28.85;10.57;;;;;;;2.24;100.00;101141.47;5061083;28;20434;-73
2022/01/07 03:10:58;;;;;;;23.60;10.38;;;;;;;2.23;100.00;101136.31;5060751;28;20040;-73
2022/01/07 03:13:24;;;;;;;22.02;10.55;;;;;;;2.30;100.00;101136.16;5058838;28;20753;-73
2022/01/07 03:15:49;;;;;;;25.23;10.75;;;;;;;2.23;100.00;101134.44;5060292;28;20130;-72
2022/01/07 03:18:14;;;;;;;23.58;9.68;;;;;;;2.29;100.00;101129.16;5060605;28;20044;-72
2022/01/07 03:20:41;;;;;;;19.55;9.95;;;;;;;2.22;100.00;101127.44;5060516;28;20782;-73
2022/01/07 03:23:12;;;;;;;25.95;10.00;;;;;;;2.31;100.00;101132.44;5057902;28;20053;-72
2022/01/07 03:25:38;;;;;;;31.77;10.40;;;;;;;2.34;100.00;101127.38;5060202;28;20559;-73
2022/01/07 03:28:04;;;;;;;22.02;9.35;;;;;;;2.33;100.00;101114.13;5042010;28;20090;-72
2022/01/07 03:30:30;;;;;;;24.20;9.82;;;;;;;2.36;100.00;101114.50;5058143;28;20032;-73
2022/01/07 03:32:56;;;;;;;22.77;9.70;;;;;;;2.24;100.00;101106.50;5060087;28;20135;-72
2022/01/07 03:35:21;;;;;;;24.30;9.48;;;;;;;2.25;100.00;101102.72;5059547;28;20126;-72
2022/01/07 03:37:49;;;;;;;24.27;10.00;;;;;;;2.30;100.00;101093.09;5059340;28;20498;-73
2022/01/07 03:40:15;;;;;;;24.55;10.27;;;;;;;2.38;100.00;101090.03;5059989;28;20043;-73
2022/01/07 03:42:41;;;;;;;27.80;10.38;;;;;;;2.28;100.00;101090.66;5042152;28;20456;-73
2022/01/07 03:45:08;;;;;;;24.48;10.75;;;;;;;2.27;100.00;101089.03;5059312;28;20457;-73
2022/01/07 03:47:34;;;;;;;22.38;9.30;;;;;;;2.32;100.00;101080.22;5059234;28;20090;-72
2022/01/07 03:49:59;;;;;;;25.98;10.38;;;;;;;2.34;100.00;101083.50;5059132;28;20524;-72
2022/01/07 03:52:25;;;;;;;25.08;9.15;;;;;;;2.31;100.00;101084.00;5041069;28;20146;-73
2022/01/07 03:54:51;;;;;;;25.40;9.90;;;;;;;2.32;100.00;101082.91;5038255;28;20082;-72
2022/01/07 03:57:17;;;;;;;19.90;9.65;;;;;;;2.35;100.00;101083.25;5037232;28;20080;-73
2022/01/07 03:59:43;;;;;;;21.48;10.43;;;;;;;2.26;100.00;101063.97;5039480;28;20049;-74
2022/01/07 04:02:08;;;;;;;24.55;9.25;;;;;;;2.22;100.00;101065.53;5043200;28;20149;-72
2022/01/07 04:04:34;;;;;;;23.27;9.80;;;;;;;2.28;100.00;101065.63;5059885;28;20033;-73
2022/01/07 04:06:59;;;;;;;27.08;9.43;;;;;;;2.24;100.00;101068.81;5057793;28;20044;-73
2022/01/07 04:09:25;;;;;;;26.83;9.32;;;;;;;2.29;100.00;101068.06;5059299;28;20049;-72
2022/01/07 04:11:51;;;;;;;24.02;9.15;;;;;;;2.34;100.00;101067.34;5059226;28;20114;-73
2022/01/07 04:14:17;;;;;;;23.35;8.93;;;;;;;2.33;100.00;101063.00;5041021;28;20052;-73
2022/01/07 04:16:42;;;;;;;23.58;9.05;;;;;;;2.29;100.00;101053.81;5057365;28;20052;-73
2022/01/07 04:19:07;;;;;;;19.55;7.53;;;;;;;2.37;100.00;101056.91;5060038;28;20036;-73
2022/01/07 04:21:33;;;;;;;22.73;7.68;;;;;;;2.28;100.00;101058.38;5057185;28;20520;-73
2022/01/07 04:23:58;;;;;;;20.25;8.27;;;;;;;2.27;100.00;101051.38;5059398;28;20036;-73
2022/01/07 04:26:23;;;;;;;21.48;8.85;;;;;;;2.26;100.00;101055.91;5059697;28;20037;-72
2022/01/07 04:28:49;;;;;;;20.55;8.77;;;;;;;2.30;100.00;101055.44;5059376;28;20401;-73
2022/01/07 04:31:14;;;;;;;20.50;8.45;;;;;;;2.30;100.00;101055.44;5042050;28;20051;-72
2022/01/07 04:33:39;;;;;;;22.73;7.80;;;;;;;2.35;100.00;101045.56;5059521;28;20093;-73
2022/01/07 04:36:05;;;;;;;19.40;8.18;;;;;;;2.19;100.00;101060.66;5050118;28;20362;-73
2022/01/07 04:38:30;;;;;;;19.38;8.13;;;;;;;2.14;100.00;101052.47;5038410;28;20033;-73
2022/01/07 04:40:56;;;;;;;27.08;9.75;;;;;;;2.16;100.00;101045.00;5044284;28;20048;-73
2022/01/07 04:43:21;;;;;;;22.58;8.80;;;;;;;2.18;100.00;101053.66;5055172;28;20033;-72
2022/01/07 04:45:47;;;;;;;12.98;8.13;;;;;;;2.17;100.00;101033.16;5040852;28;20451;-72
2022/01/07 04:48:12;;;;;;;21.05;8.65;;;;;;;2.13;100.00;101045.47;5039041;28;20063;-73
2022/01/07 04:50:38;;;;;;;15.35;8.10;;;;;;;2.18;100.00;101042.88;5056976;28;20040;-72
2022/01/07 04:53:04;;;;;;;22.40;9.27;;;;;;;2.08;100.00;101034.63;5059296;28;20040;-71
2022/01/07 04:55:37;;;;;;;17.42;8.50;;;;;;;1.98;100.00;101034.47;5058972;28;20051;-72
2022/01/07 04:58:06;;;;;;;18.77;8.63;;;;;;;2.13;100.00;101044.66;5058043;28;20041;-72
2022/01/07 05:00:31;;;;;;;17.75;7.68;;;;;;;1.80;100.00;101036.28;5059809;28;20044;-71
2022/01/07 05:02:57;;;;;;;18.75;8.57;;;;;;;1.94;100.00;101036.78;5061063;28;20079;-72
2022/01/07 05:05:22;;;;;;;19.83;9.50;;;;;;;2.04;100.00;101030.78;5063885;28;20062;-72
2022/01/07 05:07:48;;;;;;;20.23;9.82;;;;;;;2.08;100.00;101031.94;5062889;28;20071;-71
2022/01/07 05:10:15;;;;;;;26.65;9.88;;;;;;;2.13;100.00;101034.72;5063376;28;20049;-73
2022/01/07 05:12:42;;;;;;;23.38;8.82;;;;;;;2.10;100.00;101024.44;5061629;28;20051;-74
2022/01/07 05:15:09;;;;;;;24.63;8.88;;;;;;;2.13;100.00;101029.34;5060622;28;20059;-71
2022/01/07 05:17:34;;;;;;;19.73;9.00;;;;;;;2.05;100.00;101021.66;5061629;28;20604;-73
2022/01/07 05:20:00;;;;;;;23.48;9.73;;;;;;;2.08;100.00;101021.16;5062510;28;20032;-73
2022/01/07 05:22:26;;;;;;;24.20;9.70;;;;;;;2.17;100.00;101018.91;5062275;28;20113;-73
2022/01/07 05:24:51;;;;;;;20.70;9.20;;;;;;;2.10;100.00;101013.69;5062916;28;20036;-72
2022/01/07 05:27:17;;;;;;;19.55;9.55;;;;;;;2.21;100.00;101014.66;5060938;28;20094;-73
2022/01/07 05:29:42;;;;;;;26.05;9.52;;;;;;;2.32;100.00;101005.69;5062851;28;20036;-72
2022/01/07 05:32:08;;;;;;;19.42;9.32;;;;;;;2.23;100.00;101009.84;5062540;28;20561;-71
2022/01/07 05:34:34;;;;;;;21.65;10.45;;;;;;;2.23;100.00;100996.41;5043969;28;20125;-74
2022/01/07 05:36:59;;;;;;;20.63;10.30;;;;;;;2.31;100.00;100987.13;5050590;28;20041;-72
2022/01/07 05:39:25;;;;;;;26.25;10.68;;;;;;;2.32;100.00;100988.72;5047424;28;20153;-72
2022/01/07 05:41:51;;;;;;;19.00;9.75;;;;;;;2.41;100.00;100998.03;5041184;28;20048;-72
2022/01/07 05:44:16;;;;;;;19.45;10.10;;;;;;;2.51;100.00;100987.44;5044181;28;20509;-73
2022/01/07 05:46:42;;;;;;;18.88;9.75;;;;;;;2.46;100.00;100988.16;5027852;28;20501;-72
2022/01/07 05:49:07;;;;;;;25.25;11.20;;;;;;;2.51;100.00;100990.13;5047355;28;20033;-72
2022/01/07 05:51:33;;;;;;;22.17;11.70;;;;;;;2.53;100.00;100974.53;5045887;28;20048;-72
2022/01/07 05:53:58;;;;;;;26.80;12.70;;;;;;;2.52;100.00;100972.91;5041535;28;20048;-72
2022/01/07 05:56:24;;;;;;;25.55;13.60;;;;;;;2.68;100.00;100977.44;5044667;28;20143;-72
2022/01/07 05:58:49;;;;;;;22.05;13.68;;;;;;;2.66;100.00;100976.06;5048876;28;20033;-72
2022/01/07 06:01:15;;;;;;;24.02;14.10;;;;;;;2.63;100.00;100974.69;5048517;28;20037;-72
2022/01/07 06:03:41;;;;;;;24.98;13.93;;;;;;;2.72;100.00;100970.50;5055505;28;20047;-72
2022/01/07 06:06:07;;;;;;;20.67;12.85;;;;;;;2.76;100.00;100980.78;5052070;28;20382;-72
2022/01/07 06:08:33;;;;;;;21.75;13.68;;;;;;;2.72;100.00;100977.75;5052519;28;20043;-73
2022/01/07 06:10:58;;;;;;;22.08;13.20;;;;;;;2.78;100.00;100965.19;5060551;28;20041;-72
2022/01/07 06:13:24;;;;;;;22.20;13.88;;;;;;;2.80;100.00;100973.84;5062782;28;20128;-72
2022/01/07 06:15:49;;;;;;;22.00;12.15;;;;;;;2.72;100.00;100975.88;5038762;28;20048;-73
2022/01/07 06:18:15;;;;;;;23.98;12.23;;;;;;;2.77;100.00;100980.53;5073864;28;20044;-73
2022/01/07 06:20:40;;;;;;;25.05;13.02;;;;;;;2.75;100.00;100977.28;5067451;28;20028;-72
2022/01/07 06:23:05;;;;;;;25.40;12.60;;;;;;;2.86;100.00;100978.22;5063986;28;20033;-72
2022/01/07 06:25:31;;;;;;;22.80;12.85;;;;;;;2.82;100.00;100975.22;5070515;28;20037;-73
2022/01/07 06:27:56;;;;;;;21.85;11.85;;;;;;;2.79;100.00;100977.56;5065690;28;20047;-73
2022/01/07 06:30:22;;;;;;;22.90;13.82;;;;;;;2.78;100.00;100975.97;5060607;28;20052;-73
2022/01/07 06:32:48;;;;;;;19.00;13.50;;;;;;;2.86;100.00;100972.84;5056329;28;20040;-72
2022/01/07 06:35:13;;;;;;;27.45;13.60;;;;;;;2.89;100.00;100969.66;5061343;28;20041;-73
2022/01/07 06:37:39;;;;;;;24.33;14.30;;;;;;;2.89;100.00;100977.72;5057542;28;20699;-73
2022/01/07 06:40:06;;;;;;;25.45;14.20;;;;;;;2.88;100.00;100970.69;5061214;28;20040;-72
2022/01/07 06:42:32;;;;;;;22.90;14.00;;;;;;;2.91;100.00;100970.22;5059764;28;20040;-72
2022/01/07 06:44:58;;;;;;;32.38;14.95;;;;;;;2.93;100.00;100973.47;5047954;28;20037;-72
2022/01/07 06:47:24;;;;;;;26.80;15.07;;;;;;;2.93;100.00;100979.66;5052081;28;20041;-75
2022/01/07 06:49:49;;;;;;;22.95;14.43;;;;;;;2.94;100.00;100978.63;5052241;28;20112;-74
2022/01/07 06:52:15;;;;;;;32.20;15.60;;;;;;;3.05;100.00;100982.22;5057884;28;20048;-73
2022/01/07 06:54:41;;;;;;;29.98;15.57;;;;;;;3.02;100.00;100971.16;5052183;28;20040;-73
2022/01/07 06:57:06;;;;;;;29.08;15.18;;;;;;;3.08;100.00;100975.53;5061223;28;20041;-75
2022/01/07 06:59:32;;;;;;;33.20;15.85;;;;;;;3.07;100.00;100988.19;5058019;28;20021;-73
2022/01/07 07:01:57;;;;;;;31.48;16.90;;;;;;;3.05;100.00;100984.94;5053749;28;20438;-72
2022/01/07 07:04:23;;;;;;;24.00;15.13;;;;;;;3.15;100.00;100981.56;5055266;28;20040;-73
2022/01/07 07:06:49;;;;;;;32.83;17.25;;;;;;;3.14;100.00;100979.91;5054366;28;20740;-73
2022/01/07 07:09:17;;;;;;;38.33;18.42;;;;;;;3.21;100.00;100979.75;5062343;28;20122;-73
2022/01/07 07:11:43;;;;;;;35.03;18.40;;;;;;;3.22;100.00;100992.16;5063355;28;20119;-74
2022/01/07 07:14:09;;;;;;;27.60;17.45;;;;;;;3.26;100.00;100987.88;5053672;28;20037;-72
2022/01/07 07:16:35;;;;;;;31.08;17.02;;;;;;;3.23;100.00;100988.38;5057262;28;20574;-73
2022/01/07 07:19:00;;;;;;;29.23;17.38;;;;;;;3.23;100.00;100991.06;5056283;28;20036;-73
2022/01/07 07:21:26;;;;;;;30.95;17.20;;;;;;;3.31;100.00;100986.06;5042745;28;20036;-72
2022/01/07 07:23:51;;;;;;;32.85;19.58;;;;;;;3.29;100.00;100980.13;5046809;28;20048;-74
2022/01/07 07:26:17;;;;;;;40.80;20.55;;;;;;;3.36;100.00;100977.22;5046106;28;20032;-73
2022/01/07 07:28:42;;;;;;;33.65;19.13;;;;;;;3.34;100.00;100987.44;5042847;28;20492;-73
2022/01/07 07:31:12;;;;;;;43.55;19.67;;;;;;;3.27;100.00;100978.75;5041769;28;20064;-72
2022/01/07 07:38:51;;;;;;;36.38;20.13;;;;;;;3.39;100.00;100971.34;5041864;28;20049;-72
2022/01/07 07:41:17;;;;;;;36.70;20.70;;;;;;;3.43;100.00;100967.06;5042878;28;20033;-74
2022/01/07 07:43:44;;;;;;;39.13;20.92;;;;;;;3.48;100.00;100960.91;5044329;28;20040;-73
2022/01/07 07:46:10;;;;;;;44.03;19.67;;;;;;;3.50;100.00;100965.00;5039911;28;20485;-74
2022/01/07 07:48:35;;;;;;;37.17;20.13;;;;;;;3.56;100.00;100961.28;5046338;28;20128;-74
2022/01/07 07:51:00;;;;;;;44.85;20.77;;;;;;;3.52;100.00;100976.34;5046588;28;20067;-74
2022/01/07 07:53:26;;;;;;;34.63;21.38;;;;;;;3.52;100.00;100970.94;5044934;28;20048;-74
2022/01/07 07:55:53;;;;;;;41.22;21.20;;;;;;;3.54;100.00;100970.69;5045276;28;20043;-73
2022/01/07 07:58:23;;;;;;;36.28;20.90;;;;;;;3.58;100.00;100974.53;5050863;28;20444;-74
2022/01/07 08:00:49;;;;;;;40.60;23.10;;;;;;;3.62;100.00;100970.25;5043844;28;20389;-74
2022/01/07 08:03:14;;;;;;;38.72;20.23;;;;;;;3.70;100.00;100971.69;5047054;28;20048;-74
2022/01/07 08:05:40;;;;;;;41.50;21.77;;;;;;;3.68;100.00;100973.81;5053580;28;20438;-73
2022/01/07 08:08:05;;;;;;;39.42;20.77;;;;;;;3.71;100.00;100962.50;5044544;28;20048;-73
2022/01/07 08:10:32;;;;;;;40.30;21.25;;;;;;;3.71;100.00;100967.91;5044625;28;20033;-73
2022/01/07 08:16:06;;;;;;;45.28;21.42;;;;;;;3.74;100.00;100962.00;5043080;28;20133;-73
2022/01/07 08:18:35;;;;;;;43.08;20.95;;;;;;;3.81;100.00;100963.44;5037534;28;20049;-74
2022/01/07 08:21:06;;;;;;;42.90;21.40;;;;;;;3.88;100.00;100960.50;5043696;28;20434;-73
2022/01/07 08:23:33;;;;;;;39.58;20.83;;;;;;;3.81;100.00;100957.19;5051206;28;20036;-73
2022/01/07 08:25:59;;;;;;;38.03;20.60;;;;;;;3.85;100.00;100958.31;5036892;28;20060;-72
2022/01/07 08:28:28;;;;;;;39.30;19.33;;;;;;;3.97;100.00;100950.88;5042891;28;20041;-74
2022/01/07 08:36:17;;;;;;;40.95;19.52;;;;;;;3.86;100.00;100951.84;5045066;28;20067;-74
2022/01/07 08:38:43;;;;;;;34.30;18.80;;;;;;;3.93;100.00;100955.16;5055137;28;20393;-74
2022/01/07 08:41:09;;;;;;;39.80;19.60;;;;;;;3.99;100.00;100959.53;5045540;28;20037;-72
2022/01/07 08:43:35;;;;;;;41.25;19.65;;;;;;;4.07;100.00;100963.63;5050949;28;20029;-73
2022/01/07 08:46:01;;;;;;;37.60;20.73;;;;;;;4.11;100.00;100961.25;5048015;28;20044;-73
2022/01/07 08:48:28;;;;;;;31.95;18.63;;;;;;;4.13;100.00;100962.63;5045636;28;20036;-74
2022/01/07 08:50:54;;;;;;;39.88;20.65;;;;;;;4.23;100.00;100956.47;5042124;28;20504;-73
2022/01/07 08:53:20;;;;;;;29.55;18.60;;;;;;;4.20;100.00;100954.31;5053117;28;20143;-72
2022/01/07 08:55:46;;;;;;;31.15;18.90;;;;;;;4.28;100.00;100951.13;5050131;28;20420;-73
2022/01/07 08:58:12;;;;;;;34.83;19.80;;;;;;;4.25;100.00;100957.06;5046865;28;20476;-73
2022/01/07 09:00:37;;;;;;;39.85;19.63;;;;;;;4.29;100.00;100952.75;5049092;28;20040;-73
2022/01/07 09:03:03;;;;;;;38.33;18.90;;;;;;;4.39;100.00;100952.81;5043335;28;20040;-73
2022/01/07 09:05:28;;;;;;;33.85;18.73;;;;;;;4.40;100.00;100946.34;5042078;28;20051;-74
2022/01/07 09:07:54;;;;;;;33.47;18.52;;;;;;;4.40;100.00;100954.44;5043946;28;20548;-74
2022/01/07 09:10:20;;;;;;;41.20;19.45;;;;;;;4.30;100.00;100952.50;5044717;28;20106;-73
2022/01/07 09:12:46;;;;;;;30.58;17.98;;;;;;;4.35;100.00;100943.59;5050255;28;20037;-72
2022/01/07 09:15:12;;;;;;;28.20;17.23;;;;;;;4.30;100.00;100939.00;5041390;28;20053;-73
2022/01/07 09:17:38;;;;;;;35.92;18.25;;;;;;;4.30;100.00;100954.38;5044305;28;20451;-73
2022/01/07 09:20:06;;;;;;;33.92;18.52;;;;;;;4.38;100.00;100945.78;5041048;28;20477;-74
2022/01/07 09:22:32;;;;;;;33.83;17.95;;;;;;;4.40;100.00;100954.44;5042618;28;20033;-72
2022/01/07 09:24:59;;;;;;;31.35;17.55;;;;;;;4.42;100.00;100944.22;5043940;28;20047;-73
2022/01/07 09:27:25;;;;;;;35.70;18.00;;;;;;;4.53;100.00;100953.97;5045086;28;20033;-73
2022/01/07 09:29:50;;;;;;;30.02;17.55;;;;;;;4.54;100.00;100942.13;5039726;28;20037;-73
2022/01/07 09:32:16;;;;;;;45.20;18.88;;;;;;;4.56;100.00;100946.44;5043705;28;20419;-72
2022/01/07 09:34:41;;;;;;;33.80;17.05;;;;;;;4.45;100.00;100941.00;5057822;28;20040;-72
2022/01/07 09:37:06;;;;;;;39.25;17.55;;;;;;;4.44;100.00;100942.06;5043107;28;20496;-73
2022/01/07 09:39:33;;;;;;;37.75;17.33;;;;;;;4.40;100.00;100937.44;5053626;28;20055;-73
2022/01/07 09:42:00;;;;;;;26.73;15.45;;;;;;;4.28;100.00;100937.63;5058551;28;20118;-74
2022/01/07 09:44:25;;;;;;;33.97;16.15;;;;;;;4.21;100.00;100937.03;5050621;28;20132;-73
2022/01/07 09:46:51;;;;;;;38.83;18.50;;;;;;;4.29;100.00;100947.34;5046505;28;20420;-73
2022/01/07 09:49:17;;;;;;;26.77;17.17;;;;;;;4.41;100.00;100950.66;5044921;28;20059;-72
2022/01/07 09:51:43;;;;;;;35.70;16.73;;;;;;;4.44;100.00;100955.53;5044196;28;20486;-72
2022/01/07 09:54:10;;;;;;;32.40;16.70;;;;;;;4.41;100.00;100950.66;5040897;28;20043;-73
2022/01/07 09:56:37;;;;;;;31.48;16.50;;;;;;;4.46;100.00;100953.41;5056330;28;20040;-74
2022/01/07 09:59:05;;;;;;;43.10;16.50;;;;;;;4.57;100.00;100948.06;5040672;28;20235;-73
2022/01/07 10:01:31;;;;;;;27.02;15.38;;;;;;;4.71;100.00;100954.63;5045966;28;20487;-73
2022/01/07 10:03:56;;;;;;;32.42;16.85;;;;;;;4.91;100.00;100943.94;5043481;28;20367;-72
2022/01/07 10:06:24;;;;;;;29.63;17.52;;;;;;;5.22;100.00;100944.88;5046785;28;20044;-73
2022/01/07 10:09:03;;;;;;;24.35;14.55;;;;;;;5.17;100.00;100938.63;5041660;28;20151;-74
2022/01/07 10:11:29;;;;;;;34.78;16.02;;;;;;;5.38;100.00;100932.22;5043695;28;20045;-74
2022/01/07 10:14:13;;;;;;;29.02;14.40;;;;;;;5.39;100.00;100931.13;5048552;28;20366;-74
2022/01/07 10:16:52;;;;;;;26.02;14.82;;;;;;;5.41;100.00;100930.84;5045860;28;20421;-73
2022/01/07 10:19:29;;;;;;;27.63;13.13;;;;;;;5.45;100.00;100921.16;5040113;28;20619;-73
2022/01/07 10:21:57;;;;;;;22.63;12.93;;;;;;;5.37;100.00;100927.88;5042887;28;20033;-75
2022/01/07 10:24:22;;;;;;;29.90;14.65;;;;;;;5.50;100.00;100928.44;5054835;28;20442;-74
2022/01/07 10:27:11;;;;;;;24.35;14.30;;;;;;;5.41;100.00;100926.28;5059452;28;20094;-73
2022/01/07 10:29:41;;;;;;;33.42;13.88;;;;;;;5.37;100.00;100927.88;5058316;28;20048;-72
2022/01/07 10:32:31;;;;;;;25.80;14.35;;;;;;;5.33;100.00;100929.50;5061210;28;20048;-73
2022/01/07 10:35:04;;;;;;;25.58;14.32;;;;;;;5.57;100.00;100921.69;5060078;28;20097;-74
2022/01/07 10:37:30;;;;;;;27.67;15.02;;;;;;;5.44;100.00;100922.25;5060143;28;20087;-72
2022/01/07 10:39:56;;;;;;;26.05;13.93;;;;;;;5.30;100.00;100921.91;5060559;28;20148;-73
2022/01/07 10:42:22;;;;;;;31.58;14.40;;;;;;;5.45;100.00;100921.16;5060029;28;20110;-73
2022/01/07 10:45:18;;;;;;;27.70;14.88;;;;;;;5.82;100.00;100915.53;5057971;28;20044;-73
2022/01/07 10:47:49;;;;;;;26.35;15.00;;;;;;;5.73;100.00;100921.72;5041989;28;20048;-73
2022/01/07 10:50:16;;;;;;;30.92;15.45;;;;;;;5.93;100.00;100912.81;5059184;28;20045;-72
2022/01/07 10:52:41;;;;;;;34.55;14.30;;;;;;;5.52;100.00;100915.47;5058212;28;20487;-73
2022/01/07 10:55:10;;;;;;;29.60;14.68;;;;;;;5.63;100.00;100915.22;5060634;28;20044;-74
2022/01/07 10:57:44;;;;;;;27.50;14.60;;;;;;;5.81;100.00;100908.47;5058543;28;20111;-72
2022/01/07 11:00:20;;;;;;;29.80;14.75;;;;;;;5.82;100.00;100915.53;5059803;28;20511;-73
2022/01/07 11:02:47;;;;;;;33.70;13.93;;;;;;;5.85;100.00;100904.16;5058309;28;20478;-73
2022/01/07 11:05:13;;;;;;;29.38;14.27;;;;;;;5.87;100.00;100904.66;5059710;28;20394;-74
2022/01/07 11:07:39;;;;;;;23.88;13.93;;;;;;;5.74;100.00;100897.09;5054260;28;20039;-73
2022/01/07 11:10:06;;;;;;;27.23;13.07;;;;;;;5.68;100.00;100909.00;5042271;28;20032;-73
2022/01/07 11:12:34;;;;;;;33.03;12.25;;;;;;;5.75;100.00;100898.72;5047892;28;20044;-73
2022/01/07 11:15:01;;;;;;;22.27;12.43;;;;;;;5.83;100.00;100900.91;5046404;28;20044;-72
2022/01/07 11:17:27;;;;;;;25.95;12.52;;;;;;;5.95;100.00;100905.25;5044439;28;20041;-73
2022/01/07 11:19:59;;;;;;;24.98;12.35;;;;;;;5.82;100.00;100898.47;5038321;28;20064;-73
2022/01/07 11:22:25;;;;;;;20.83;11.45;;;;;;;5.91;100.00;100894.13;5038026;28;20476;-73